sensor_id;sensor_type;location;lat;lon;timestamp;P1;durP1;ratioP1;P2;durP2;ratioP2
35743;SDS011;21867;52.012;4.324;2023-05-10T00:01:59;10.77;;;9.70;;
35743;SDS011;21867;52.012;4.324;2023-05-10T00:04:27;10.73;;;9.50;;
35743;SDS011;21867;52.012;4.324;2023-05-10T00:06:54;11.03;;;9.93;;
35743;SDS011;21867;52.012;4.324;2023-05-10T00:09:21;10.83;;;9.80;;
35743;SDS011;21867;52.012;4.324;2023-05-10T00:11:48;14.43;;;11.80;;
35743;SDS011;21867;52.012;4.324;2023-05-10T00:14:16;10.03;;;9.13;;
35743;SDS011;21867;52.012;4.324;2023-05-10T00:16:45;12.90;;;11.60;;
35743;SDS011;21867;52.012;4.324;2023-05-10T00:19:12;12.90;;;11.70;;
35743;SDS011;21867;52.012;4.324;2023-05-10T00:21:39;12.63;;;11.33;;
35743;SDS011;21867;52.012;4.324;2023-05-10T00:24:07;16.60;;;12.33;;
35743;SDS011;21867;52.012;4.324;2023-05-10T00:26:34;12.57;;;11.30;;
35743;SDS011;21867;52.012;4.324;2023-05-10T00:29:02;14.23;;;12.83;;
35743;SDS011;21867;52.012;4.324;2023-05-10T00:31:29;14.13;;;12.63;;
35743;SDS011;21867;52.012;4.324;2023-05-10T00:33:58;19.13;;;14.73;;
35743;SDS011;21867;52.012;4.324;2023-05-10T00:36:25;15.13;;;13.63;;
35743;SDS011;21867;52.012;4.324;2023-05-10T00:38:53;15.57;;;13.87;;
35743;SDS011;21867;52.012;4.324;2023-05-10T00:41:20;15.80;;;13.17;;
35743;SDS011;21867;52.012;4.324;2023-05-10T00:43:48;16.37;;;12.97;;
35743;SDS011;21867;52.012;4.324;2023-05-10T00:46:15;16.77;;;14.17;;
35743;SDS011;21867;52.012;4.324;2023-05-10T00:48:43;18.87;;;14.87;;
35743;SDS011;21867;52.012;4.324;2023-05-10T00:51:12;18.47;;;14.30;;
35743;SDS011;21867;52.012;4.324;2023-05-10T00:53:39;17.97;;;14.97;;
35743;SDS011;21867;52.012;4.324;2023-05-10T00:56:07;20.30;;;15.47;;
35743;SDS011;21867;52.012;4.324;2023-05-10T00:58:34;17.97;;;14.50;;
35743;SDS011;21867;52.012;4.324;2023-05-10T01:01:02;22.00;;;16.67;;
35743;SDS011;21867;52.012;4.324;2023-05-10T01:03:29;19.50;;;14.97;;
35743;SDS011;21867;52.012;4.324;2023-05-10T01:05:57;24.53;;;17.27;;
35743;SDS011;21867;52.012;4.324;2023-05-10T01:08:25;23.87;;;17.03;;
35743;SDS011;21867;52.012;4.324;2023-05-10T01:10:54;33.03;;;18.27;;
35743;SDS011;21867;52.012;4.324;2023-05-10T01:13:25;29.57;;;18.17;;
35743;SDS011;21867;52.012;4.324;2023-05-10T01:15:56;34.60;;;19.67;;
35743;SDS011;21867;52.012;4.324;2023-05-10T01:18:24;33.23;;;18.63;;
35743;SDS011;21867;52.012;4.324;2023-05-10T01:20:54;29.63;;;21.23;;
35743;SDS011;21867;52.012;4.324;2023-05-10T01:23:30;35.23;;;21.37;;
35743;SDS011;21867;52.012;4.324;2023-05-10T01:26:07;30.83;;;19.80;;
35743;SDS011;21867;52.012;4.324;2023-05-10T01:28:42;38.60;;;20.90;;
35743;SDS011;21867;52.012;4.324;2023-05-10T01:31:21;33.30;;;20.20;;
35743;SDS011;21867;52.012;4.324;2023-05-10T01:33:53;30.60;;;20.30;;
35743;SDS011;21867;52.012;4.324;2023-05-10T01:36:23;36.03;;;19.83;;
35743;SDS011;21867;52.012;4.324;2023-05-10T01:38:55;26.50;;;18.13;;
35743;SDS011;21867;52.012;4.324;2023-05-10T01:41:25;28.67;;;18.87;;
35743;SDS011;21867;52.012;4.324;2023-05-10T01:43:55;27.50;;;19.27;;
35743;SDS011;21867;52.012;4.324;2023-05-10T01:46:26;33.17;;;18.87;;
35743;SDS011;21867;52.012;4.324;2023-05-10T01:48:57;24.17;;;18.03;;
35743;SDS011;21867;52.012;4.324;2023-05-10T01:51:27;28.60;;;18.47;;
35743;SDS011;21867;52.012;4.324;2023-05-10T01:53:57;29.30;;;17.80;;
35743;SDS011;21867;52.012;4.324;2023-05-10T01:56:26;24.80;;;18.37;;
35743;SDS011;21867;52.012;4.324;2023-05-10T01:58:53;25.93;;;17.30;;
35743;SDS011;21867;52.012;4.324;2023-05-10T02:01:22;25.87;;;18.43;;
35743;SDS011;21867;52.012;4.324;2023-05-10T02:03:50;26.97;;;17.60;;
35743;SDS011;21867;52.012;4.324;2023-05-10T02:06:20;26.70;;;18.03;;
35743;SDS011;21867;52.012;4.324;2023-05-10T02:08:48;23.73;;;17.47;;
35743;SDS011;21867;52.012;4.324;2023-05-10T02:11:16;25.30;;;17.97;;
35743;SDS011;21867;52.012;4.324;2023-05-10T02:13:44;23.63;;;18.60;;
35743;SDS011;21867;52.012;4.324;2023-05-10T02:16:13;20.50;;;16.83;;
35743;SDS011;21867;52.012;4.324;2023-05-10T02:18:41;19.93;;;15.53;;
35743;SDS011;21867;52.012;4.324;2023-05-10T02:21:08;20.43;;;15.27;;
35743;SDS011;21867;52.012;4.324;2023-05-10T02:23:39;21.43;;;16.60;;
35743;SDS011;21867;52.012;4.324;2023-05-10T02:26:07;18.53;;;12.13;;
35743;SDS011;21867;52.012;4.324;2023-05-10T02:28:34;15.67;;;12.93;;
35743;SDS011;21867;52.012;4.324;2023-05-10T02:31:02;15.70;;;11.87;;
35743;SDS011;21867;52.012;4.324;2023-05-10T02:33:30;14.53;;;12.87;;
35743;SDS011;21867;52.012;4.324;2023-05-10T02:35:58;19.17;;;13.20;;
35743;SDS011;21867;52.012;4.324;2023-05-10T02:38:25;16.07;;;11.23;;
35743;SDS011;21867;52.012;4.324;2023-05-10T02:40:57;16.20;;;13.40;;
35743;SDS011;21867;52.012;4.324;2023-05-10T02:43:24;18.73;;;13.03;;
35743;SDS011;21867;52.012;4.324;2023-05-10T02:45:52;18.07;;;13.30;;
35743;SDS011;21867;52.012;4.324;2023-05-10T02:48:20;15.43;;;12.63;;
35743;SDS011;21867;52.012;4.324;2023-05-10T02:50:47;15.83;;;12.03;;
35743;SDS011;21867;52.012;4.324;2023-05-10T02:53:15;20.43;;;14.87;;
35743;SDS011;21867;52.012;4.324;2023-05-10T02:55:44;19.97;;;14.63;;
35743;SDS011;21867;52.012;4.324;2023-05-10T02:58:13;21.57;;;13.77;;
35743;SDS011;21867;52.012;4.324;2023-05-10T03:00:40;19.47;;;14.93;;
35743;SDS011;21867;52.012;4.324;2023-05-10T03:03:08;16.07;;;13.77;;
35743;SDS011;21867;52.012;4.324;2023-05-10T03:05:36;18.23;;;13.30;;
35743;SDS011;21867;52.012;4.324;2023-05-10T03:08:03;17.07;;;13.10;;
35743;SDS011;21867;52.012;4.324;2023-05-10T03:10:35;21.73;;;14.03;;
35743;SDS011;21867;52.012;4.324;2023-05-10T03:13:12;21.83;;;15.43;;
35743;SDS011;21867;52.012;4.324;2023-05-10T03:15:46;22.23;;;16.73;;
35743;SDS011;21867;52.012;4.324;2023-05-10T03:18:15;20.20;;;17.70;;
35743;SDS011;21867;52.012;4.324;2023-05-10T03:20:46;19.17;;;13.23;;
35743;SDS011;21867;52.012;4.324;2023-05-10T03:23:17;25.23;;;16.97;;
35743;SDS011;21867;52.012;4.324;2023-05-10T03:25:48;23.07;;;14.67;;
35743;SDS011;21867;52.012;4.324;2023-05-10T03:28:16;21.53;;;13.57;;
35743;SDS011;21867;52.012;4.324;2023-05-10T03:30:46;17.90;;;13.87;;
35743;SDS011;21867;52.012;4.324;2023-05-10T03:33:14;17.00;;;13.83;;
35743;SDS011;21867;52.012;4.324;2023-05-10T03:35:44;17.27;;;12.67;;
35743;SDS011;21867;52.012;4.324;2023-05-10T03:38:12;18.30;;;15.17;;
35743;SDS011;21867;52.012;4.324;2023-05-10T03:40:39;17.57;;;13.77;;
35743;SDS011;21867;52.012;4.324;2023-05-10T03:43:07;16.93;;;13.70;;
35743;SDS011;21867;52.012;4.324;2023-05-10T03:45:34;19.87;;;15.40;;
35743;SDS011;21867;52.012;4.324;2023-05-10T03:48:03;21.53;;;15.40;;
35743;SDS011;21867;52.012;4.324;2023-05-10T03:50:30;25.63;;;15.60;;
35743;SDS011;21867;52.012;4.324;2023-05-10T03:52:58;30.70;;;19.67;;
35743;SDS011;21867;52.012;4.324;2023-05-10T03:55:26;30.67;;;16.17;;
35743;SDS011;21867;52.012;4.324;2023-05-10T03:57:54;28.83;;;13.93;;
35743;SDS011;21867;52.012;4.324;2023-05-10T04:00:22;41.93;;;15.40;;
35743;SDS011;21867;52.012;4.324;2023-05-10T04:02:53;35.97;;;14.83;;
35743;SDS011;21867;52.012;4.324;2023-05-10T04:05:23;31.70;;;13.07;;
35743;SDS011;21867;52.012;4.324;2023-05-10T04:07:51;28.27;;;11.70;;
35743;SDS011;21867;52.012;4.324;2023-05-10T04:10:19;34.53;;;11.97;;
35743;SDS011;21867;52.012;4.324;2023-05-10T04:12:46;27.07;;;9.37;;
35743;SDS011;21867;52.012;4.324;2023-05-10T04:15:13;26.03;;;9.07;;
35743;SDS011;21867;52.012;4.324;2023-05-10T04:17:41;17.50;;;9.33;;
35743;SDS011;21867;52.012;4.324;2023-05-10T04:20:08;10.30;;;7.57;;
35743;SDS011;21867;52.012;4.324;2023-05-10T04:22:37;10.73;;;7.90;;
35743;SDS011;21867;52.012;4.324;2023-05-10T04:25:05;7.23;;;5.37;;
35743;SDS011;21867;52.012;4.324;2023-05-10T04:27:32;6.10;;;5.43;;
35743;SDS011;21867;52.012;4.324;2023-05-10T04:30:00;5.67;;;5.07;;
35743;SDS011;21867;52.012;4.324;2023-05-10T04:32:27;5.87;;;5.07;;
35743;SDS011;21867;52.012;4.324;2023-05-10T04:34:54;4.73;;;4.20;;
35743;SDS011;21867;52.012;4.324;2023-05-10T04:37:21;4.53;;;3.90;;
35743;SDS011;21867;52.012;4.324;2023-05-10T04:39:50;3.37;;;3.07;;
35743;SDS011;21867;52.012;4.324;2023-05-10T04:42:17;4.67;;;3.23;;
35743;SDS011;21867;52.012;4.324;2023-05-10T04:44:45;3.30;;;3.00;;
35743;SDS011;21867;52.012;4.324;2023-05-10T04:47:12;3.80;;;3.50;;
35743;SDS011;21867;52.012;4.324;2023-05-10T04:49:39;5.03;;;3.40;;
35743;SDS011;21867;52.012;4.324;2023-05-10T04:52:06;5.07;;;3.77;;
35743;SDS011;21867;52.012;4.324;2023-05-10T04:54:34;3.80;;;3.50;;
35743;SDS011;21867;52.012;4.324;2023-05-10T04:57:02;3.87;;;3.57;;
35743;SDS011;21867;52.012;4.324;2023-05-10T04:59:30;5.90;;;4.33;;
35743;SDS011;21867;52.012;4.324;2023-05-10T05:01:57;5.20;;;4.80;;
35743;SDS011;21867;52.012;4.324;2023-05-10T05:04:24;5.80;;;5.30;;
35743;SDS011;21867;52.012;4.324;2023-05-10T05:06:52;6.50;;;6.00;;
35743;SDS011;21867;52.012;4.324;2023-05-10T05:09:19;5.83;;;5.33;;
35743;SDS011;21867;52.012;4.324;2023-05-10T05:11:46;6.57;;;5.83;;
35743;SDS011;21867;52.012;4.324;2023-05-10T05:14:15;6.67;;;6.17;;
35743;SDS011;21867;52.012;4.324;2023-05-10T05:16:42;5.77;;;5.27;;
35743;SDS011;21867;52.012;4.324;2023-05-10T05:19:10;6.90;;;6.30;;
35743;SDS011;21867;52.012;4.324;2023-05-10T05:21:37;6.63;;;5.93;;
35743;SDS011;21867;52.012;4.324;2023-05-10T05:24:05;7.20;;;6.50;;
35743;SDS011;21867;52.012;4.324;2023-05-10T05:26:32;7.40;;;6.70;;
35743;SDS011;21867;52.012;4.324;2023-05-10T05:28:59;6.93;;;6.13;;
35743;SDS011;21867;52.012;4.324;2023-05-10T05:31:28;7.83;;;7.03;;
35743;SDS011;21867;52.012;4.324;2023-05-10T05:33:55;6.57;;;5.97;;
35743;SDS011;21867;52.012;4.324;2023-05-10T05:36:23;7.60;;;6.90;;
35743;SDS011;21867;52.012;4.324;2023-05-10T05:38:50;6.77;;;6.13;;
35743;SDS011;21867;52.012;4.324;2023-05-10T05:41:18;6.80;;;6.20;;
35743;SDS011;21867;52.012;4.324;2023-05-10T05:43:45;6.83;;;6.13;;
35743;SDS011;21867;52.012;4.324;2023-05-10T05:46:12;6.80;;;6.17;;
35743;SDS011;21867;52.012;4.324;2023-05-10T05:48:41;6.73;;;6.13;;
35743;SDS011;21867;52.012;4.324;2023-05-10T05:51:08;6.80;;;6.10;;
35743;SDS011;21867;52.012;4.324;2023-05-10T05:53:35;5.70;;;5.00;;
35743;SDS011;21867;52.012;4.324;2023-05-10T05:56:03;6.30;;;5.67;;
35743;SDS011;21867;52.012;4.324;2023-05-10T05:58:30;8.03;;;5.93;;
35743;SDS011;21867;52.012;4.324;2023-05-10T06:00:58;7.17;;;5.87;;
35743;SDS011;21867;52.012;4.324;2023-05-10T06:03:25;14.93;;;6.27;;
35743;SDS011;21867;52.012;4.324;2023-05-10T06:05:54;13.07;;;7.27;;
35743;SDS011;21867;52.012;4.324;2023-05-10T06:08:21;8.50;;;6.57;;
35743;SDS011;21867;52.012;4.324;2023-05-10T06:10:48;10.67;;;6.60;;
35743;SDS011;21867;52.012;4.324;2023-05-10T06:13:16;10.50;;;7.23;;
35743;SDS011;21867;52.012;4.324;2023-05-10T06:15:43;8.83;;;7.13;;
35743;SDS011;21867;52.012;4.324;2023-05-10T06:18:10;8.80;;;6.50;;
35743;SDS011;21867;52.012;4.324;2023-05-10T06:20:38;12.93;;;7.83;;
35743;SDS011;21867;52.012;4.324;2023-05-10T06:23:06;10.97;;;8.07;;
35743;SDS011;21867;52.012;4.324;2023-05-10T06:25:34;11.03;;;7.77;;
35743;SDS011;21867;52.012;4.324;2023-05-10T06:28:01;14.97;;;8.20;;
35743;SDS011;21867;52.012;4.324;2023-05-10T06:30:28;12.67;;;8.10;;
35743;SDS011;21867;52.012;4.324;2023-05-10T06:32:55;8.13;;;6.90;;
35743;SDS011;21867;52.012;4.324;2023-05-10T06:35:23;8.63;;;7.07;;
35743;SDS011;21867;52.012;4.324;2023-05-10T06:37:51;7.73;;;7.03;;
35743;SDS011;21867;52.012;4.324;2023-05-10T06:40:20;8.90;;;7.67;;
35743;SDS011;21867;52.012;4.324;2023-05-10T06:42:47;9.83;;;7.50;;
35743;SDS011;21867;52.012;4.324;2023-05-10T06:45:16;9.97;;;7.93;;
35743;SDS011;21867;52.012;4.324;2023-05-10T06:47:44;11.07;;;8.17;;
35743;SDS011;21867;52.012;4.324;2023-05-10T06:50:11;8.77;;;7.40;;
35743;SDS011;21867;52.012;4.324;2023-05-10T06:52:38;9.53;;;6.30;;
35743;SDS011;21867;52.012;4.324;2023-05-10T06:55:07;7.07;;;6.37;;
35743;SDS011;21867;52.012;4.324;2023-05-10T06:57:35;9.40;;;6.43;;
35743;SDS011;21867;52.012;4.324;2023-05-10T07:00:03;13.17;;;6.70;;
35743;SDS011;21867;52.012;4.324;2023-05-10T07:02:30;10.70;;;6.67;;
35743;SDS011;21867;52.012;4.324;2023-05-10T07:04:58;8.23;;;5.70;;
35743;SDS011;21867;52.012;4.324;2023-05-10T07:07:28;12.23;;;6.93;;
35743;SDS011;21867;52.012;4.324;2023-05-10T07:09:56;9.43;;;5.37;;
35743;SDS011;21867;52.012;4.324;2023-05-10T07:12:23;7.80;;;5.30;;
35743;SDS011;21867;52.012;4.324;2023-05-10T07:14:52;7.43;;;5.20;;
35743;SDS011;21867;52.012;4.324;2023-05-10T07:17:19;11.47;;;5.53;;
35743;SDS011;21867;52.012;4.324;2023-05-10T07:19:47;9.43;;;5.87;;
35743;SDS011;21867;52.012;4.324;2023-05-10T07:22:14;6.00;;;5.40;;
35743;SDS011;21867;52.012;4.324;2023-05-10T07:24:41;10.63;;;6.50;;
35743;SDS011;21867;52.012;4.324;2023-05-10T07:27:09;8.93;;;5.90;;
35743;SDS011;21867;52.012;4.324;2023-05-10T07:29:36;7.23;;;5.03;;
35743;SDS011;21867;52.012;4.324;2023-05-10T07:32:05;6.77;;;5.20;;
35743;SDS011;21867;52.012;4.324;2023-05-10T07:34:33;6.13;;;5.53;;
35743;SDS011;21867;52.012;4.324;2023-05-10T07:37:00;5.40;;;4.53;;
35743;SDS011;21867;52.012;4.324;2023-05-10T07:39:28;7.03;;;5.63;;
35743;SDS011;21867;52.012;4.324;2023-05-10T07:41:55;8.43;;;5.40;;
35743;SDS011;21867;52.012;4.324;2023-05-10T07:44:22;8.97;;;5.70;;
35743;SDS011;21867;52.012;4.324;2023-05-10T07:46:50;6.00;;;5.40;;
35743;SDS011;21867;52.012;4.324;2023-05-10T07:49:18;5.93;;;4.90;;
35743;SDS011;21867;52.012;4.324;2023-05-10T07:51:46;6.93;;;4.73;;
35743;SDS011;21867;52.012;4.324;2023-05-10T07:54:13;5.73;;;4.80;;
35743;SDS011;21867;52.012;4.324;2023-05-10T07:56:40;5.27;;;4.80;;
35743;SDS011;21867;52.012;4.324;2023-05-10T07:59:08;5.23;;;4.73;;
35743;SDS011;21867;52.012;4.324;2023-05-10T08:01:38;4.37;;;3.97;;
35743;SDS011;21867;52.012;4.324;2023-05-10T08:04:05;4.73;;;4.23;;
35743;SDS011;21867;52.012;4.324;2023-05-10T08:06:34;6.57;;;4.60;;
35743;SDS011;21867;52.012;4.324;2023-05-10T08:09:01;5.97;;;5.30;;
35743;SDS011;21867;52.012;4.324;2023-05-10T08:11:28;4.97;;;4.57;;
35743;SDS011;21867;52.012;4.324;2023-05-10T08:13:56;5.47;;;4.30;;
35743;SDS011;21867;52.012;4.324;2023-05-10T08:16:24;5.10;;;4.60;;
35743;SDS011;21867;52.012;4.324;2023-05-10T08:18:51;5.30;;;4.80;;
35743;SDS011;21867;52.012;4.324;2023-05-10T08:21:18;5.00;;;4.10;;
35743;SDS011;21867;52.012;4.324;2023-05-10T08:23:47;4.70;;;3.83;;
35743;SDS011;21867;52.012;4.324;2023-05-10T08:26:14;4.07;;;3.73;;
35743;SDS011;21867;52.012;4.324;2023-05-10T08:28:42;5.90;;;4.40;;
35743;SDS011;21867;52.012;4.324;2023-05-10T08:31:09;6.07;;;4.10;;
35743;SDS011;21867;52.012;4.324;2023-05-10T08:33:36;4.53;;;4.13;;
35743;SDS011;21867;52.012;4.324;2023-05-10T08:36:05;4.07;;;3.57;;
35743;SDS011;21867;52.012;4.324;2023-05-10T08:38:32;7.07;;;4.90;;
35743;SDS011;21867;52.012;4.324;2023-05-10T08:41:01;5.43;;;4.93;;
35743;SDS011;21867;52.012;4.324;2023-05-10T08:43:29;6.03;;;5.40;;
35743;SDS011;21867;52.012;4.324;2023-05-10T08:45:56;8.17;;;5.60;;
35743;SDS011;21867;52.012;4.324;2023-05-10T08:48:26;6.83;;;5.50;;
35743;SDS011;21867;52.012;4.324;2023-05-10T08:50:55;6.13;;;5.07;;
35743;SDS011;21867;52.012;4.324;2023-05-10T08:53:24;6.87;;;5.53;;
35743;SDS011;21867;52.012;4.324;2023-05-10T08:55:52;7.43;;;5.70;;
35743;SDS011;21867;52.012;4.324;2023-05-10T08:58:20;7.80;;;6.57;;
35743;SDS011;21867;52.012;4.324;2023-05-10T09:00:48;8.97;;;5.37;;
35743;SDS011;21867;52.012;4.324;2023-05-10T09:03:16;6.57;;;5.60;;
35743;SDS011;21867;52.012;4.324;2023-05-10T09:05:43;7.03;;;5.07;;
35743;SDS011;21867;52.012;4.324;2023-05-10T09:08:11;10.37;;;6.17;;
35743;SDS011;21867;52.012;4.324;2023-05-10T09:10:38;6.43;;;4.93;;
35743;SDS011;21867;52.012;4.324;2023-05-10T09:13:06;8.63;;;6.10;;
35743;SDS011;21867;52.012;4.324;2023-05-10T09:15:35;9.00;;;5.70;;
35743;SDS011;21867;52.012;4.324;2023-05-10T09:18:03;6.27;;;5.37;;
35743;SDS011;21867;52.012;4.324;2023-05-10T09:20:30;8.87;;;5.30;;
35743;SDS011;21867;52.012;4.324;2023-05-10T09:22:57;4.70;;;4.30;;
35743;SDS011;21867;52.012;4.324;2023-05-10T09:25:25;6.53;;;5.10;;
35743;SDS011;21867;52.012;4.324;2023-05-10T09:27:52;5.70;;;4.77;;
35743;SDS011;21867;52.012;4.324;2023-05-10T09:30:23;6.97;;;5.50;;
35743;SDS011;21867;52.012;4.324;2023-05-10T09:32:52;7.60;;;5.60;;
35743;SDS011;21867;52.012;4.324;2023-05-10T09:35:21;8.07;;;6.10;;
35743;SDS011;21867;52.012;4.324;2023-05-10T09:37:51;8.20;;;6.30;;
35743;SDS011;21867;52.012;4.324;2023-05-10T09:40:19;11.17;;;6.37;;
35743;SDS011;21867;52.012;4.324;2023-05-10T09:42:54;10.30;;;6.73;;
35743;SDS011;21867;52.012;4.324;2023-05-10T09:45:22;9.40;;;5.67;;
35743;SDS011;21867;52.012;4.324;2023-05-10T09:47:49;8.67;;;6.30;;
35743;SDS011;21867;52.012;4.324;2023-05-10T09:50:18;6.43;;;5.83;;
35743;SDS011;21867;52.012;4.324;2023-05-10T09:52:46;6.63;;;5.93;;
35743;SDS011;21867;52.012;4.324;2023-05-10T09:55:14;8.80;;;5.43;;
35743;SDS011;21867;52.012;4.324;2023-05-10T09:57:41;7.97;;;5.40;;
35743;SDS011;21867;52.012;4.324;2023-05-10T10:00:09;6.73;;;5.57;;
35743;SDS011;21867;52.012;4.324;2023-05-10T10:02:39;6.87;;;6.17;;
35743;SDS011;21867;52.012;4.324;2023-05-10T10:05:07;7.53;;;5.63;;
35743;SDS011;21867;52.012;4.324;2023-05-10T10:07:36;6.37;;;5.87;;
35743;SDS011;21867;52.012;4.324;2023-05-10T10:10:04;8.30;;;5.40;;
35743;SDS011;21867;52.012;4.324;2023-05-10T10:12:31;5.77;;;5.17;;
35743;SDS011;21867;52.012;4.324;2023-05-10T10:14:59;5.53;;;4.60;;
35743;SDS011;21867;52.012;4.324;2023-05-10T10:17:26;5.10;;;4.60;;
35743;SDS011;21867;52.012;4.324;2023-05-10T10:19:54;7.73;;;5.93;;
35743;SDS011;21867;52.012;4.324;2023-05-10T10:22:22;7.43;;;5.37;;
35743;SDS011;21867;52.012;4.324;2023-05-10T10:24:51;4.73;;;4.30;;
35743;SDS011;21867;52.012;4.324;2023-05-10T10:27:45;5.87;;;5.03;;
35743;SDS011;21867;52.012;4.324;2023-05-10T10:31:11;5.50;;;4.97;;
35743;SDS011;21867;52.012;4.324;2023-05-10T10:34:29;13.30;;;5.87;;
35743;SDS011;21867;52.012;4.324;2023-05-10T10:36:57;7.57;;;5.77;;
35743;SDS011;21867;52.012;4.324;2023-05-10T10:39:24;7.67;;;6.07;;
35743;SDS011;21867;52.012;4.324;2023-05-10T10:41:54;5.73;;;5.20;;
35743;SDS011;21867;52.012;4.324;2023-05-10T10:44:25;6.70;;;5.87;;
35743;SDS011;21867;52.012;4.324;2023-05-10T10:46:59;5.87;;;5.27;;
35743;SDS011;21867;52.012;4.324;2023-05-10T10:49:27;6.77;;;5.57;;
35743;SDS011;21867;52.012;4.324;2023-05-10T10:52:12;6.77;;;5.43;;
35743;SDS011;21867;52.012;4.324;2023-05-10T10:54:40;7.23;;;5.33;;
35743;SDS011;21867;52.012;4.324;2023-05-10T10:57:11;9.83;;;5.53;;
35743;SDS011;21867;52.012;4.324;2023-05-10T10:59:41;6.90;;;6.27;;
35743;SDS011;21867;52.012;4.324;2023-05-10T11:02:08;7.97;;;7.13;;
35743;SDS011;21867;52.012;4.324;2023-05-10T11:04:42;9.20;;;6.83;;
35743;SDS011;21867;52.012;4.324;2023-05-10T11:07:16;5.80;;;5.30;;
35743;SDS011;21867;52.012;4.324;2023-05-10T11:09:43;6.53;;;5.83;;
35743;SDS011;21867;52.012;4.324;2023-05-10T11:12:12;6.50;;;5.80;;
35743;SDS011;21867;52.012;4.324;2023-05-10T11:14:39;7.53;;;6.40;;
35743;SDS011;21867;52.012;4.324;2023-05-10T11:17:22;7.47;;;6.37;;
35743;SDS011;21867;52.012;4.324;2023-05-10T11:22:49;7.73;;;6.90;;
35743;SDS011;21867;52.012;4.324;2023-05-10T11:25:16;6.27;;;5.67;;
35743;SDS011;21867;52.012;4.324;2023-05-10T11:27:47;7.80;;;6.67;;
35743;SDS011;21867;52.012;4.324;2023-05-10T11:30:15;8.10;;;7.00;;
35743;SDS011;21867;52.012;4.324;2023-05-10T11:32:42;9.27;;;7.00;;
35743;SDS011;21867;52.012;4.324;2023-05-10T11:35:11;8.43;;;6.47;;
35743;SDS011;21867;52.012;4.324;2023-05-10T11:37:39;7.33;;;6.30;;
35743;SDS011;21867;52.012;4.324;2023-05-10T11:40:06;11.97;;;6.63;;
35743;SDS011;21867;52.012;4.324;2023-05-10T11:42:34;7.73;;;5.87;;
35743;SDS011;21867;52.012;4.324;2023-05-10T11:45:03;8.43;;;6.80;;
35743;SDS011;21867;52.012;4.324;2023-05-10T11:47:30;5.73;;;5.03;;
35743;SDS011;21867;52.012;4.324;2023-05-10T11:49:57;9.87;;;6.63;;
35743;SDS011;21867;52.012;4.324;2023-05-10T11:52:25;7.20;;;6.50;;
35743;SDS011;21867;52.012;4.324;2023-05-10T11:54:52;7.63;;;6.57;;
35743;SDS011;21867;52.012;4.324;2023-05-10T11:57:21;5.10;;;4.60;;
35743;SDS011;21867;52.012;4.324;2023-05-10T11:59:53;8.53;;;6.27;;
35743;SDS011;21867;52.012;4.324;2023-05-10T12:02:21;8.10;;;6.37;;
35743;SDS011;21867;52.012;4.324;2023-05-10T12:04:49;7.53;;;6.30;;
35743;SDS011;21867;52.012;4.324;2023-05-10T12:07:17;8.30;;;6.47;;
35743;SDS011;21867;52.012;4.324;2023-05-10T12:09:44;9.27;;;6.00;;
35743;SDS011;21867;52.012;4.324;2023-05-10T12:12:15;7.20;;;6.13;;
35743;SDS011;21867;52.012;4.324;2023-05-10T12:14:42;5.87;;;5.27;;
35743;SDS011;21867;52.012;4.324;2023-05-10T12:17:11;7.97;;;6.77;;
35743;SDS011;21867;52.012;4.324;2023-05-10T12:19:40;7.47;;;6.33;;
35743;SDS011;21867;52.012;4.324;2023-05-10T12:22:08;8.60;;;7.37;;
35743;SDS011;21867;52.012;4.324;2023-05-10T12:24:36;9.80;;;5.27;;
35743;SDS011;21867;52.012;4.324;2023-05-10T12:27:04;6.70;;;4.97;;
35743;SDS011;21867;52.012;4.324;2023-05-10T12:29:31;7.87;;;5.67;;
35743;SDS011;21867;52.012;4.324;2023-05-10T12:31:59;6.97;;;6.27;;
35743;SDS011;21867;52.012;4.324;2023-05-10T12:34:27;7.87;;;6.60;;
35743;SDS011;21867;52.012;4.324;2023-05-10T12:36:58;8.40;;;6.73;;
35743;SDS011;21867;52.012;4.324;2023-05-10T12:39:25;7.30;;;5.90;;
35743;SDS011;21867;52.012;4.324;2023-05-10T12:41:53;7.97;;;5.70;;
35743;SDS011;21867;52.012;4.324;2023-05-10T12:44:20;10.43;;;6.60;;
35743;SDS011;21867;52.012;4.324;2023-05-10T12:46:47;7.33;;;5.90;;
35743;SDS011;21867;52.012;4.324;2023-05-10T12:49:15;9.60;;;6.40;;
35743;SDS011;21867;52.012;4.324;2023-05-10T12:51:42;7.43;;;6.33;;
35743;SDS011;21867;52.012;4.324;2023-05-10T12:54:11;8.47;;;6.03;;
35743;SDS011;21867;52.012;4.324;2023-05-10T12:56:38;6.47;;;4.73;;
35743;SDS011;21867;52.012;4.324;2023-05-10T12:59:05;7.13;;;5.50;;
35743;SDS011;21867;52.012;4.324;2023-05-10T13:01:32;9.77;;;5.57;;
35743;SDS011;21867;52.012;4.324;2023-05-10T13:04:00;8.97;;;6.17;;
35743;SDS011;21867;52.012;4.324;2023-05-10T13:06:27;7.13;;;5.97;;
35743;SDS011;21867;52.012;4.324;2023-05-10T13:08:54;4.57;;;4.17;;
35743;SDS011;21867;52.012;4.324;2023-05-10T13:11:23;6.40;;;3.93;;
35743;SDS011;21867;52.012;4.324;2023-05-10T13:13:51;4.73;;;4.03;;
35743;SDS011;21867;52.012;4.324;2023-05-10T13:16:18;6.07;;;4.07;;
35743;SDS011;21867;52.012;4.324;2023-05-10T13:18:45;6.23;;;4.60;;
35743;SDS011;21867;52.012;4.324;2023-05-10T13:21:13;6.40;;;4.60;;
35743;SDS011;21867;52.012;4.324;2023-05-10T13:23:40;5.23;;;3.90;;
35743;SDS011;21867;52.012;4.324;2023-05-10T13:26:07;5.67;;;5.17;;
35743;SDS011;21867;52.012;4.324;2023-05-10T13:28:36;6.83;;;4.93;;
35743;SDS011;21867;52.012;4.324;2023-05-10T13:31:03;5.17;;;4.63;;
35743;SDS011;21867;52.012;4.324;2023-05-10T13:33:30;5.57;;;4.60;;
35743;SDS011;21867;52.012;4.324;2023-05-10T13:35:57;5.07;;;4.57;;
35743;SDS011;21867;52.012;4.324;2023-05-10T13:38:25;4.93;;;4.30;;
35743;SDS011;21867;52.012;4.324;2023-05-10T13:40:52;5.23;;;4.50;;
35743;SDS011;21867;52.012;4.324;2023-05-10T13:43:19;4.23;;;3.83;;
35743;SDS011;21867;52.012;4.324;2023-05-10T13:45:48;7.47;;;4.90;;
35743;SDS011;21867;52.012;4.324;2023-05-10T13:48:15;8.07;;;5.40;;
35743;SDS011;21867;52.012;4.324;2023-05-10T13:50:42;4.40;;;3.97;;
35743;SDS011;21867;52.012;4.324;2023-05-10T13:53:10;6.77;;;5.60;;
35743;SDS011;21867;52.012;4.324;2023-05-10T13:55:37;9.30;;;6.60;;
35743;SDS011;21867;52.012;4.324;2023-05-10T13:58:04;9.13;;;5.50;;
35743;SDS011;21867;52.012;4.324;2023-05-10T14:00:31;8.30;;;5.80;;
35743;SDS011;21867;52.012;4.324;2023-05-10T14:03:00;5.77;;;4.53;;
35743;SDS011;21867;52.012;4.324;2023-05-10T14:05:27;6.53;;;5.20;;
35743;SDS011;21867;52.012;4.324;2023-05-10T14:07:55;5.83;;;5.17;;
35743;SDS011;21867;52.012;4.324;2023-05-10T14:10:22;6.03;;;4.40;;
35743;SDS011;21867;52.012;4.324;2023-05-10T14:12:49;6.83;;;5.43;;
35743;SDS011;21867;52.012;4.324;2023-05-10T14:15:17;7.13;;;5.20;;
35743;SDS011;21867;52.012;4.324;2023-05-10T14:17:44;6.03;;;5.00;;
35743;SDS011;21867;52.012;4.324;2023-05-10T14:20:13;5.27;;;4.77;;
35743;SDS011;21867;52.012;4.324;2023-05-10T14:22:40;5.13;;;4.00;;
35743;SDS011;21867;52.012;4.324;2023-05-10T14:25:07;4.30;;;3.87;;
35743;SDS011;21867;52.012;4.324;2023-05-10T14:27:35;5.53;;;5.03;;
35743;SDS011;21867;52.012;4.324;2023-05-10T14:30:02;4.43;;;4.10;;
35743;SDS011;21867;52.012;4.324;2023-05-10T14:32:30;6.20;;;4.40;;
35743;SDS011;21867;52.012;4.324;2023-05-10T14:34:57;6.03;;;4.40;;
35743;SDS011;21867;52.012;4.324;2023-05-10T14:37:26;4.70;;;4.30;;
35743;SDS011;21867;52.012;4.324;2023-05-10T14:39:53;5.47;;;4.13;;
35743;SDS011;21867;52.012;4.324;2023-05-10T14:42:20;4.90;;;3.47;;
35743;SDS011;21867;52.012;4.324;2023-05-10T14:44:47;4.67;;;4.03;;
35743;SDS011;21867;52.012;4.324;2023-05-10T14:47:15;3.87;;;3.57;;
35743;SDS011;21867;52.012;4.324;2023-05-10T14:49:42;4.10;;;3.80;;
35743;SDS011;21867;52.012;4.324;2023-05-10T14:52:09;3.97;;;3.50;;